Погода Сальниковщинана неделю

Тверская область, Россия

22 - 28 мая
  • 22мая
    Сегодня
    +8°
    +22°
    Ясно и безоблачно
    ВремяПогодаТемператураВлажностьДавлениеВетер, м/сВероятность осадков
    00:00Ясно и безоблачно+11°C61 %746 мм1.2 м/с2 %
    03:00Ясно и безоблачно+8°C63 %747 мм1.0 м/с2 %
    06:00Ясно и безоблачно+9°C71 %747 мм1.2 м/с2 %
    09:00Ясно и безоблачно+16°C58 %748 мм1.4 м/с2 %
    12:00Ясно и безоблачно+20°C39 %748 мм2.3 м/с2 %
    15:00Ясно и безоблачно+21°C37 %748 мм2.5 м/с2 %
    18:00Ясно и безоблачно+21°C38 %748 мм2.2 м/с2 %
    21:00Ясно и безоблачно+17°C53 %749 мм1.4 м/с2 %
  • 23мая
    Четверг
    +9°
    +21°
    Ясно и безоблачно
    ВремяПогодаТемператураВлажностьДавлениеВетер, м/сВероятность осадков
    00:00Ясно и безоблачно+11°C57 %749 мм1.3 м/с2 %
    03:00Ясно и безоблачно+9°C63 %750 мм1.1 м/с2 %
    06:00Ясно и безоблачно+10°C66 %751 мм1.4 м/с2 %
    09:00Ясно и безоблачно+16°C52 %752 мм1.6 м/с2 %
    12:00Ясно и безоблачно+20°C37 %752 мм2.5 м/с2 %
    15:00Ясно и безоблачно+21°C35 %752 мм2.5 м/с2 %
    18:00Ясно и безоблачно+21°C35 %752 мм2.2 м/с2 %
    21:00Ясно и безоблачно+16°C51 %752 мм1.1 м/с2 %
  • 24мая
    Пятница
    +8°
    +21°
    Ясно и безоблачно
    ВремяПогодаТемператураВлажностьДавлениеВетер, м/сВероятность осадков
    00:00Ясно и безоблачно+11°C64 %753 мм1.0 м/с2 %
    03:00Ясно и безоблачно+9°C73 %753 мм1.0 м/с2 %
    06:00Ясно и безоблачно+10°C72 %754 мм1.3 м/с2 %
    09:00Ясно и безоблачно+16°C50 %755 мм1.5 м/с2 %
    12:00Ясно и безоблачно+20°C37 %755 мм2.5 м/с2 %
    15:00Ясно и безоблачно+21°C35 %754 мм2.6 м/с2 %
    18:00Ясно и безоблачно+21°C38 %753 мм2.1 м/с2 %
    21:00Ясно и безоблачно+17°C54 %753 мм1.3 м/с2 %
  • 25мая
    Суббота
    +11°
    +24°
    Ясно и безоблачно
    ВремяПогодаТемператураВлажностьДавлениеВетер, м/сВероятность осадков
    00:00Ясно и безоблачно+11°C59 %752 мм1.2 м/с2 %
    03:00Ясно и безоблачно+9°C68 %753 мм1.0 м/с2 %
    06:00Ясно и безоблачно+10°C74 %752 мм1.4 м/с2 %
    09:00Ясно и безоблачно+17°C57 %752 мм1.5 м/с2 %
    12:00Ясно и безоблачно+21°C45 %752 мм2.3 м/с2 %
    15:00Ясно и безоблачно+23°C39 %751 мм2.6 м/с2 %
    18:00Ясно и безоблачно+23°C39 %750 мм2.0 м/с3 %
    21:00Ясно и безоблачно+18°C63 %749 мм0.6 м/с2 %
  • 26мая
    Воскресенье
    +11°
    +25°
    Ясно и безоблачно
    ВремяПогодаТемператураВлажностьДавлениеВетер, м/сВероятность осадков
    00:00Ясно и безоблачно+13°C75 %749 мм0.7 м/с2 %
    03:00Ясно и безоблачно+12°C81 %749 мм0.9 м/с2 %
    06:00Ясно и безоблачно+13°C77 %749 мм1.1 м/с4 %
    09:00Ясно и безоблачно+19°C61 %750 мм0.9 м/с11 %
    12:00Ясно и безоблачно+23°C42 %750 мм1.5 м/с20 %
    15:00Ясно и безоблачно+25°C36 %750 мм1.8 м/с32 %
    18:00Небольшая облачность и лёгкий дождик+25°C35 %749 мм1.4 м/с57 %
    21:00Ясно и безоблачно+20°C65 %749 мм0.6 м/с22 %
Мы используем cookies
Соглашаюсь